Time;durP1;ratioP1;P1;durP2;ratioP2;P2;SDS_P1;SDS_P2;PMS_P1;PMS_P2;Temp;Humidity;BMP_temperature;BMP_pressure;BME280_temperature;BME280_humidity;BME280_pressure;Samples;Min_cycle;Max_cycle;Signal;HPM_P1;HPM_P2
2023/08/19 00:00:55;;;;;;;7.68;4.72;;;23.40;90.90;;;;;;4949718;29;20256;-76
2023/08/19 00:03:21;;;;;;;8.35;4.88;;;23.30;91.00;;;;;;4956899;28;20037;-77
2023/08/19 00:05:46;;;;;;;8.25;4.40;;;23.20;91.40;;;;;;4986101;28;20031;-76
2023/08/19 00:08:13;;;;;;;7.35;4.15;;;23.20;90.90;;;;;;4986682;28;20014;-79
2023/08/19 00:10:39;;;;;;;8.73;4.45;;;23.10;90.90;;;;;;4986399;28;20046;-77
2023/08/19 00:13:06;;;;;;;7.25;3.97;;;23.10;91.30;;;;;;4969083;28;20046;-75
2023/08/19 00:15:32;;;;;;;6.65;3.97;;;23.00;91.60;;;;;;4953028;28;20248;-77
2023/08/19 00:18:00;;;;;;;5.82;3.97;;;23.00;91.70;;;;;;4986001;28;20035;-75
2023/08/19 00:20:29;;;;;;;;;;;23.00;91.70;;;;;;4986602;28;20041;-76
2023/08/19 00:22:56;;;;;;;5.85;3.78;;;22.90;91.70;;;;;;4985842;28;19920;-76
2023/08/19 00:25:26;;;;;;;6.72;4.22;;;22.90;91.80;;;;;;4968916;28;20026;-74
2023/08/19 00:27:52;;;;;;;5.55;3.17;;;22.80;91.80;;;;;;4985621;28;20043;-76
2023/08/19 00:30:19;;;;;;;5.40;3.42;;;22.80;91.50;;;;;;4952438;28;20030;-77
2023/08/19 08:04:45;;;;;;;5.68;2.75;;;27.20;83.90;;;;;;5667979;23;20058;-78
2023/08/19 08:07:13;;;;;;;7.40;2.90;;;27.40;83.40;;;;;;5007085;28;20038;-76
2023/08/19 08:09:41;;;;;;;12.57;5.50;;;27.60;83.10;;;;;;4977235;28;20085;-77
2023/08/19 08:12:07;;;;;;;9.80;3.67;;;27.70;82.60;;;;;;4987764;28;20128;-75
2023/08/19 08:14:33;;;;;;;6.35;3.22;;;27.70;82.40;;;;;;5005145;28;20034;-75
2023/08/19 08:16:58;;;;;;;6.85;2.80;;;27.90;82.30;;;;;;5006371;28;20101;-75
2023/08/19 08:19:28;;;;;;;7.53;2.90;;;28.00;82.00;;;;;;5005287;28;20034;-74
2023/08/19 08:21:54;;;;;;;8.23;3.28;;;28.10;81.70;;;;;;5005885;28;20042;-76
2023/08/19 08:24:20;;;;;;;6.30;2.88;;;28.20;81.50;;;;;;5005314;28;20014;-76
2023/08/19 08:26:46;;;;;;;7.40;3.00;;;28.30;81.30;;;;;;5000981;28;20026;-75
2023/08/19 08:29:12;;;;;;;9.95;3.40;;;28.40;81.10;;;;;;5005574;28;20085;-75
2023/08/19 08:31:38;;;;;;;6.85;4.40;;;28.50;81.10;;;;;;5005847;28;20097;-75
2023/08/19 08:34:05;;;;;;;6.57;3.10;;;28.60;80.60;;;;;;4988477;28;20300;-75
2023/08/19 08:36:31;;;;;;;10.20;3.20;;;28.70;79.30;;;;;;5005347;28;20033;-73
2023/08/19 08:38:56;;;;;;;7.47;2.85;;;28.80;78.90;;;;;;5005315;28;20061;-74
2023/08/19 08:41:22;;;;;;;6.78;3.08;;;28.90;78.60;;;;;;5005106;28;20027;-75
2023/08/19 08:43:49;;;;;;;5.93;2.97;;;29.00;79.00;;;;;;5000553;28;20315;-75
2023/08/19 08:46:16;;;;;;;7.93;3.00;;;29.10;77.50;;;;;;5005244;28;20022;-75
2023/08/19 08:48:44;;;;;;;7.35;2.90;;;29.20;76.60;;;;;;4987820;28;20088;-76
2023/08/19 08:51:10;;;;;;;8.97;3.03;;;29.20;76.50;;;;;;5005170;28;20323;-74
2023/08/19 08:53:36;;;;;;;12.02;3.38;;;29.30;76.20;;;;;;5004812;28;20038;-75
2023/08/19 08:56:03;;;;;;;7.05;2.70;;;29.40;76.30;;;;;;5005197;28;20374;-75
2023/08/19 08:58:29;;;;;;;9.50;3.05;;;29.50;76.20;;;;;;5005020;28;20038;-75
2023/08/19 09:00:54;;;;;;;11.20;3.20;;;29.70;76.20;;;;;;5005559;28;20030;-76
2023/08/19 09:03:29;;;;;;;5.10;2.50;;;29.70;76.20;;;;;;5000674;28;20037;-75
2023/08/19 09:06:00;;;;;;;5.95;2.78;;;29.80;76.00;;;;;;5005023;28;20347;-75
2023/08/19 09:14:40;;;;;;;9.25;3.45;;;30.00;75.20;;;;;;4987074;28;20036;-75
2023/08/19 09:17:06;;;;;;;5.10;2.53;;;30.20;75.50;;;;;;4987552;28;20037;-75
2023/08/19 09:19:35;;;;;;;5.75;2.60;;;30.30;74.90;;;;;;4987120;28;20097;-76
2023/08/19 09:22:17;;;;;;;5.57;3.00;;;30.40;74.70;;;;;;5004721;28;20033;-76
2023/08/19 09:24:54;;;;;;;5.40;2.67;;;30.50;74.10;;;;;;4994840;28;20039;-75
2023/08/19 09:27:33;;;;;;;7.20;2.45;;;30.60;73.90;;;;;;4985225;28;20038;-75
2023/08/19 09:30:00;;;;;;;6.68;2.72;;;30.70;73.50;;;;;;4984964;28;20031;-74
2023/08/19 09:32:45;;;;;;;8.48;2.85;;;30.80;72.80;;;;;;4951947;28;20042;-76
2023/08/19 09:35:15;;;;;;;7.93;2.58;;;30.90;72.50;;;;;;4984715;28;20031;-77
2023/08/19 09:37:41;;;;;;;6.93;2.83;;;30.90;71.90;;;;;;4984864;28;20019;-76
2023/08/19 09:40:11;;;;;;;6.25;2.75;;;31.10;71.60;;;;;;4985035;28;20031;-75
2023/08/19 09:42:45;;;;;;;7.68;2.67;;;31.20;71.40;;;;;;4984264;28;20216;-74
2023/08/19 09:45:19;;;;;;;8.50;3.15;;;31.20;71.30;;;;;;4984829;28;20034;-74
2023/08/19 09:47:52;;;;;;;6.65;3.10;;;31.20;70.50;;;;;;4967756;28;20035;-76
2023/08/19 09:50:23;;;;;;;5.80;3.17;;;31.30;70.30;;;;;;4984747;28;20061;-76
2023/08/19 09:52:56;;;;;;;8.02;2.90;;;31.40;69.90;;;;;;4984841;28;20058;-76
2023/08/19 09:55:26;;;;;;;7.65;2.75;;;31.50;69.90;;;;;;4984394;28;20057;-75
2023/08/19 09:57:52;;;;;;;8.48;4.35;;;31.60;69.80;;;;;;4967811;28;20071;-74
2023/08/19 10:00:18;;;;;;;7.70;4.15;;;31.70;69.30;;;;;;4967468;28;20312;-75
2023/08/19 10:02:44;;;;;;;4.45;2.60;;;31.80;69.00;;;;;;4967364;28;20033;-74
2023/08/19 10:05:10;;;;;;;5.70;2.50;;;32.00;68.90;;;;;;4985047;28;20228;-74
2023/08/19 10:07:38;;;;;;;10.57;3.80;;;32.00;68.70;;;;;;5002972;28;20030;-75
2023/08/19 10:10:05;;;;;;;6.18;2.80;;;32.20;68.20;;;;;;5003829;28;20219;-74
2023/08/19 10:12:38;;;;;;;5.85;2.80;;;32.20;67.80;;;;;;4996594;28;20034;-76
2023/08/19 10:15:06;;;;;;;8.20;2.70;;;32.30;67.50;;;;;;4984321;28;20098;-77
2023/08/19 10:17:58;;;;;;;8.80;2.92;;;32.40;67.50;;;;;;4968792;28;20106;-74
2023/08/19 10:20:28;;;;;;;7.40;2.83;;;32.50;66.60;;;;;;4983873;28;20040;-75
2023/08/19 10:22:58;;;;;;;7.78;2.97;;;32.60;66.60;;;;;;4967029;28;20378;-76
2023/08/19 10:25:25;;;;;;;5.97;2.40;;;32.60;66.80;;;;;;4966814;28;20054;-77
2023/08/19 10:27:51;;;;;;;6.10;2.57;;;32.60;66.10;;;;;;4984242;28;20097;-77
2023/08/19 10:30:28;;;;;;;6.60;3.03;;;32.70;65.70;;;;;;4967284;28;20027;-76
2023/08/19 10:32:54;;;;;;;6.43;2.60;;;32.80;65.40;;;;;;4984130;28;20026;-77
2023/08/19 10:35:20;;;;;;;6.60;2.58;;;32.90;65.50;;;;;;4967063;28;20383;-76
2023/08/19 10:37:50;;;;;;;8.10;2.80;;;33.00;65.00;;;;;;4983938;28;20077;-76
2023/08/19 10:40:24;;;;;;;5.50;2.70;;;33.00;64.60;;;;;;4983120;28;20031;-76
2023/08/19 10:43:08;;;;;;;5.88;2.30;;;33.10;64.90;;;;;;4950976;28;20030;-77
2023/08/19 10:45:35;;;;;;;11.73;2.85;;;33.30;64.20;;;;;;4983378;28;20038;-75
2023/08/19 10:48:02;;;;;;;7.57;2.70;;;33.40;64.20;;;;;;4950958;28;20086;-74
2023/08/19 10:50:35;;;;;;;5.82;2.75;;;33.50;64.20;;;;;;4983526;28;20020;-77
2023/08/19 10:53:06;;;;;;;7.28;2.75;;;33.70;63.70;;;;;;4983824;28;20147;-75
2023/08/19 10:55:54;;;;;;;3.88;2.30;;;33.80;63.40;;;;;;4950652;28;20039;-76
2023/08/19 10:58:20;;;;;;;;;;;34.00;62.80;;;;;;4984261;28;20042;-76
2023/08/19 11:00:48;;;;;;;4.10;2.28;;;34.20;63.50;;;;;;4966516;28;19906;-76
2023/08/19 11:03:15;;;;;;;7.80;2.40;;;34.30;62.00;;;;;;4983907;28;20213;-76
2023/08/19 11:05:51;;;;;;;8.10;2.50;;;34.30;60.50;;;;;;4966027;28;20062;-75
2023/08/19 11:08:17;;;;;;;7.68;2.70;;;34.40;59.80;;;;;;4982728;28;20087;-77
2023/08/19 11:10:47;;;;;;;4.85;2.25;;;34.50;59.30;;;;;;4983170;28;20055;-76
2023/08/19 11:13:13;;;;;;;6.22;2.30;;;34.60;58.60;;;;;;4983675;28;20035;-74
2023/08/19 11:15:40;;;;;;;6.50;2.35;;;34.80;58.30;;;;;;4965690;28;20150;-77
2023/08/19 11:18:09;;;;;;;5.70;2.58;;;35.30;57.30;;;;;;4966725;28;20050;-77
2023/08/19 11:20:36;;;;;;;5.93;2.20;;;35.60;57.50;;;;;;4946843;29;20034;-75
2023/08/19 11:23:02;;;;;;;8.65;2.70;;;35.90;56.30;;;;;;4947495;29;20031;-75
2023/08/19 11:25:40;;;;;;;6.43;2.42;;;36.50;55.40;;;;;;4963798;29;20027;-73
2023/08/19 11:28:06;;;;;;;5.53;2.30;;;37.00;55.90;;;;;;4960676;28;20026;-76
2023/08/19 11:30:35;;;;;;;3.65;2.13;;;37.30;54.60;;;;;;4964936;28;20209;-75
2023/08/19 11:33:04;;;;;;;5.00;1.85;;;37.90;53.60;;;;;;4971544;28;20023;-76
2023/08/19 11:35:41;;;;;;;5.13;2.03;;;38.50;52.90;;;;;;4959783;29;20047;-76
2023/08/19 11:38:16;;;;;;;6.07;2.20;;;39.60;51.60;;;;;;4964306;29;20055;-76
2023/08/19 11:40:42;;;;;;;6.68;1.98;;;40.80;50.40;;;;;;4977086;28;20054;-75
2023/08/19 11:43:09;;;;;;;4.63;2.15;;;41.60;49.20;;;;;;4983423;28;20216;-74
2023/08/19 11:45:39;;;;;;;4.50;1.92;;;42.80;47.40;;;;;;4982819;28;20033;-74
2023/08/19 11:48:06;;;;;;;5.70;2.03;;;43.30;47.50;;;;;;4963195;29;20023;-75
2023/08/19 11:50:35;;;;;;;3.88;1.95;;;43.90;46.90;;;;;;4963641;29;20039;-75
2023/08/19 11:53:04;;;;;;;4.18;1.85;;;44.30;46.90;;;;;;4966117;29;20027;-76
2023/08/19 11:55:30;;;;;;;6.32;1.80;;;44.00;46.40;;;;;;4966952;29;20219;-75
2023/08/19 11:57:56;;;;;;;4.57;2.28;;;44.20;45.90;;;;;;4966200;29;20055;-74
2023/08/19 12:00:26;;;;;;;6.78;2.58;;;44.40;46.10;;;;;;4967569;29;20031;-74
2023/08/19 12:02:56;;;;;;;6.28;3.35;;;45.00;46.00;;;;;;4967696;29;20027;-76
2023/08/19 12:05:25;;;;;;;3.83;2.15;;;45.60;45.00;;;;;;4982950;28;20093;-75
2023/08/19 12:07:51;;;;;;;6.40;1.90;;;45.70;44.30;;;;;;4986803;28;20022;-77
2023/08/19 12:10:17;;;;;;;3.97;1.80;;;46.10;45.20;;;;;;4986849;28;20093;-76
2023/08/19 12:12:58;;;;;;;5.67;1.93;;;46.70;44.40;;;;;;4986385;28;20030;-76
2023/08/19 12:15:25;;;;;;;5.50;1.85;;;46.90;43.40;;;;;;4969623;28;20287;-77
2023/08/19 12:17:51;;;;;;;4.18;1.80;;;47.50;42.90;;;;;;4953240;28;20022;-77
2023/08/19 12:20:16;;;;;;;5.10;2.40;;;48.30;42.20;;;;;;4988697;28;20073;-76
2023/08/19 12:22:42;;;;;;;3.97;1.80;;;48.50;41.80;;;;;;4994319;28;20082;-75
2023/08/19 12:25:09;;;;;;;3.10;1.77;;;48.60;41.80;;;;;;5005531;28;20316;-74
2023/08/19 12:27:35;;;;;;;3.45;1.70;;;48.50;41.40;;;;;;4997527;28;20030;-75
2023/08/19 12:30:00;;;;;;;4.03;1.80;;;48.10;41.80;;;;;;5002480;28;20231;-75
2023/08/19 12:32:29;;;;;;;3.28;1.83;;;47.80;42.20;;;;;;4988322;28;20022;-76
2023/08/19 12:34:55;;;;;;;3.58;1.77;;;46.70;41.90;;;;;;4972492;28;20364;-76
2023/08/19 12:37:21;;;;;;;3.60;1.90;;;45.90;42.50;;;;;;4966096;28;20094;-75
2023/08/19 12:39:47;;;;;;;5.93;2.07;;;46.70;43.40;;;;;;4979285;28;20323;-74
2023/08/19 12:42:12;;;;;;;4.90;1.73;;;47.80;43.20;;;;;;4971153;28;20031;-75
2023/08/19 12:44:38;;;;;;;4.87;1.60;;;48.60;41.50;;;;;;5005082;28;20207;-76
2023/08/19 12:47:04;;;;;;;6.07;1.67;;;49.40;41.80;;;;;;4999145;28;20287;-76
2023/08/19 12:49:30;;;;;;;3.67;1.67;;;49.80;41.50;;;;;;4985460;28;20030;-78
2023/08/19 12:51:56;;;;;;;5.93;1.90;;;49.10;41.40;;;;;;4985806;28;20101;-76
2023/08/19 12:54:21;;;;;;;4.07;2.17;;;49.10;41.40;;;;;;4992001;28;20305;-77
2023/08/19 12:56:47;;;;;;;3.17;1.47;;;49.20;41.60;;;;;;4988936;28;20097;-78
2023/08/19 12:59:13;;;;;;;4.70;2.23;;;49.50;41.70;;;;;;4985771;28;20094;-74
2023/08/19 13:01:39;;;;;;;4.57;2.00;;;49.80;41.50;;;;;;4985299;28;20102;-76
2023/08/19 13:04:05;;;;;;;4.00;1.90;;;49.60;41.60;;;;;;4984602;28;20070;-75
2023/08/19 13:06:32;;;;;;;5.40;2.00;;;49.70;41.70;;;;;;4995432;28;20248;-76
2023/08/19 13:08:58;;;;;;;5.78;2.00;;;49.50;41.70;;;;;;5005107;28;20026;-76
2023/08/19 13:11:24;;;;;;;3.63;1.80;;;49.10;41.80;;;;;;5004995;28;20324;-75
2023/08/19 13:13:49;;;;;;;6.10;2.10;;;48.90;42.10;;;;;;4971696;28;20198;-75
2023/08/19 13:16:15;;;;;;;4.67;1.77;;;48.10;42.40;;;;;;4985566;28;20031;-76
2023/08/19 13:18:41;;;;;;;6.33;1.90;;;46.40;43.10;;;;;;4984981;28;20035;-75
2023/08/19 13:21:06;;;;;;;3.60;2.08;;;44.80;44.40;;;;;;4985432;28;20031;-75
2023/08/19 13:23:32;;;;;;;6.50;2.33;;;43.50;45.00;;;;;;4984840;28;20035;-77
2023/08/19 13:25:58;;;;;;;6.97;2.03;;;42.20;46.00;;;;;;4985477;28;20045;-77
2023/08/19 13:28:24;;;;;;;4.38;2.17;;;41.40;46.70;;;;;;4973973;28;20050;-74
2023/08/19 13:30:49;;;;;;;4.20;2.08;;;40.60;47.40;;;;;;4997716;28;20022;-74
2023/08/19 13:33:15;;;;;;;5.82;1.90;;;39.70;48.40;;;;;;5000430;28;20101;-75
2023/08/19 13:35:41;;;;;;;5.43;2.47;;;39.20;49.20;;;;;;4999780;28;20100;-74
2023/08/19 13:38:07;;;;;;;4.65;2.20;;;38.70;49.20;;;;;;5001897;28;20324;-75
2023/08/19 13:40:33;;;;;;;5.80;2.20;;;38.30;49.20;;;;;;4965566;28;20031;-75
2023/08/19 13:43:03;;;;;;;4.05;2.00;;;37.90;49.70;;;;;;4990576;28;20034;-75
2023/08/19 13:45:28;;;;;;;5.82;3.10;;;37.60;50.60;;;;;;4999016;28;20045;-77
2023/08/19 13:47:55;;;;;;;5.32;2.60;;;37.20;53.00;;;;;;4999278;28;20106;-75
2023/08/19 13:50:20;;;;;;;6.45;3.10;;;37.10;54.50;;;;;;4997509;28;20037;-75
2023/08/19 13:52:49;;;;;;;4.90;3.17;;;36.70;55.90;;;;;;5000646;28;20057;-76
2023/08/19 13:55:16;;;;;;;5.55;3.00;;;36.30;56.80;;;;;;4995920;28;20034;-75
2023/08/19 13:57:42;;;;;;;6.97;3.28;;;35.90;57.80;;;;;;4970173;28;20403;-79
2023/08/19 14:00:22;;;;;;;6.90;3.33;;;35.70;58.40;;;;;;4968160;28;20098;-76
2023/08/19 14:03:12;;;;;;;5.78;3.47;;;35.50;58.30;;;;;;4967257;28;20027;-77
2023/08/19 14:05:38;;;;;;;6.13;3.50;;;35.10;58.50;;;;;;4954720;28;20114;-76
2023/08/19 14:08:04;;;;;;;6.63;2.92;;;34.60;58.90;;;;;;4973396;28;20085;-77
2023/08/19 14:10:30;;;;;;;8.50;3.58;;;34.50;59.50;;;;;;4995135;28;20109;-75
2023/08/19 14:12:58;;;;;;;5.63;3.30;;;34.40;59.60;;;;;;4983989;28;20030;-75
2023/08/19 14:15:24;;;;;;;6.18;3.40;;;34.50;59.00;;;;;;5003415;28;20347;-75
2023/08/19 14:17:52;;;;;;;6.40;3.47;;;34.40;58.60;;;;;;4983964;28;20054;-75
2023/08/19 14:20:18;;;;;;;5.93;2.92;;;34.10;58.90;;;;;;4984529;28;20049;-75
2023/08/19 14:22:44;;;;;;;6.95;3.17;;;34.20;58.80;;;;;;4984397;28;20251;-75
2023/08/19 14:25:12;;;;;;;6.70;3.00;;;34.20;58.60;;;;;;5002834;28;20045;-76
2023/08/19 14:27:38;;;;;;;4.25;2.85;;;34.50;58.30;;;;;;4991087;28;20049;-73
2023/08/19 14:30:06;;;;;;;10.82;3.10;;;34.90;57.70;;;;;;4995665;28;20034;-75
2023/08/19 14:32:31;;;;;;;6.72;3.13;;;35.50;57.20;;;;;;4984808;28;20045;-75
2023/08/19 14:34:57;;;;;;;6.82;3.10;;;36.50;56.50;;;;;;4970681;28;20046;-75
2023/08/19 14:37:23;;;;;;;5.47;2.88;;;37.80;54.60;;;;;;4998757;28;20039;-75
2023/08/19 14:39:49;;;;;;;5.43;2.90;;;37.80;54.10;;;;;;4992075;28;20029;-73
2023/08/19 14:42:14;;;;;;;5.70;2.85;;;37.80;54.10;;;;;;4999635;28;20134;-76
2023/08/19 14:44:40;;;;;;;7.45;3.17;;;37.80;54.30;;;;;;4982997;28;20033;-76
2023/08/19 14:47:06;;;;;;;5.53;3.03;;;38.40;53.70;;;;;;5002248;28;20030;-74
2023/08/19 14:49:35;;;;;;;6.15;3.05;;;39.00;53.10;;;;;;4985715;28;20114;-76
2023/08/19 14:52:02;;;;;;;5.00;2.78;;;39.10;52.70;;;;;;4983162;28;20022;-76
2023/08/19 14:54:28;;;;;;;5.15;3.00;;;38.40;53.30;;;;;;5003159;28;20037;-74
2023/08/19 14:56:54;;;;;;;7.63;3.13;;;37.70;54.20;;;;;;5002430;28;20027;-74
2023/08/19 14:59:20;;;;;;;6.38;2.80;;;37.30;54.60;;;;;;5002982;28;20069;-74
2023/08/19 15:01:45;;;;;;;9.07;2.88;;;37.00;54.60;;;;;;4968819;28;20448;-73
2023/08/19 15:04:11;;;;;;;6.45;2.50;;;36.50;54.80;;;;;;4975836;28;20038;-77
2023/08/19 15:06:37;;;;;;;7.00;3.05;;;35.90;55.20;;;;;;4994431;28;20046;-77
2023/08/19 15:09:05;;;;;;;7.05;2.75;;;35.40;55.70;;;;;;5003046;28;20073;-76
2023/08/19 15:11:39;;;;;;;6.30;3.40;;;34.90;57.10;;;;;;5003325;28;20308;-74
2023/08/19 15:14:07;;;;;;;4.60;2.95;;;34.60;56.60;;;;;;5003224;28;20085;-76
2023/08/19 15:16:33;;;;;;;7.15;3.60;;;34.20;57.00;;;;;;5002167;28;20636;-74
2023/08/19 15:18:58;;;;;;;6.97;3.10;;;33.80;57.50;;;;;;5002546;28;20038;-74
2023/08/19 15:21:24;;;;;;;5.65;2.85;;;33.40;58.10;;;;;;4983959;28;20031;-75
2023/08/19 15:23:50;;;;;;;7.22;3.53;;;33.10;58.70;;;;;;4994407;28;20031;-74
2023/08/19 15:26:15;;;;;;;6.50;3.20;;;32.90;59.50;;;;;;5003728;28;20106;-74
2023/08/19 15:28:43;;;;;;;5.05;2.70;;;32.60;60.30;;;;;;4980550;28;20311;-75
2023/08/19 15:31:15;;;;;;;11.07;3.70;;;32.50;61.00;;;;;;4970478;28;20027;-74
2023/08/19 15:33:41;;;;;;;5.15;3.25;;;32.40;60.90;;;;;;4969910;28;20095;-76
2023/08/19 15:36:09;;;;;;;7.68;3.60;;;32.20;61.20;;;;;;5001445;28;20037;-76
2023/08/19 15:38:51;;;;;;;6.03;3.50;;;32.10;61.80;;;;;;4972817;28;20030;-78
2023/08/19 15:41:17;;;;;;;9.38;3.47;;;32.10;62.30;;;;;;5006951;28;20031;-76
2023/08/19 15:43:42;;;;;;;7.82;3.25;;;31.90;63.10;;;;;;5006176;28;20037;-73
2023/08/19 15:46:08;;;;;;;8.93;3.65;;;31.80;63.10;;;;;;4987989;28;20045;-75
2023/08/19 15:48:34;;;;;;;6.88;3.63;;;31.80;63.50;;;;;;4985965;28;20058;-75
2023/08/19 15:51:00;;;;;;;7.28;3.45;;;31.90;63.70;;;;;;5002956;28;20026;-76
2023/08/19 15:53:26;;;;;;;8.32;3.63;;;31.90;64.10;;;;;;5006197;28;20034;-75
2023/08/19 15:55:52;;;;;;;9.07;3.92;;;32.00;63.90;;;;;;5005922;28;20030;-76
2023/08/19 15:58:17;;;;;;;8.07;3.50;;;32.10;63.90;;;;;;5006380;28;20235;-74
2023/08/19 16:00:43;;;;;;;6.35;3.17;;;32.40;63.40;;;;;;5006059;28;20323;-75
2023/08/19 16:03:10;;;;;;;5.90;3.40;;;32.50;63.10;;;;;;4989280;28;20084;-73
2023/08/19 16:05:36;;;;;;;6.45;3.60;;;33.10;62.30;;;;;;5003422;28;20125;-75
2023/08/19 16:08:02;;;;;;;7.32;3.38;;;33.90;61.60;;;;;;4969196;28;20320;-73
2023/08/19 16:10:27;;;;;;;6.43;3.10;;;35.20;59.20;;;;;;4992332;28;20323;-73
2023/08/19 16:12:53;;;;;;;8.60;3.25;;;36.90;57.20;;;;;;5005810;28;20220;-75
2023/08/19 16:15:19;;;;;;;7.10;3.45;;;37.90;55.60;;;;;;4988958;28;20041;-75
2023/08/19 16:17:44;;;;;;;6.63;2.95;;;37.90;55.00;;;;;;5005770;28;20054;-75
2023/08/19 16:20:11;;;;;;;5.72;3.38;;;37.60;55.40;;;;;;5006162;28;20030;-74
2023/08/19 16:22:36;;;;;;;6.93;2.85;;;36.90;56.50;;;;;;5005794;28;20034;-73
2023/08/19 16:25:02;;;;;;;7.20;3.47;;;36.00;57.90;;;;;;5005589;28;20097;-75
2023/08/19 16:27:31;;;;;;;6.55;3.28;;;35.30;58.90;;;;;;4970407;28;20379;-74
2023/08/19 16:29:58;;;;;;;7.03;2.83;;;34.70;59.90;;;;;;4982708;28;20367;-76
2023/08/19 16:32:24;;;;;;;6.38;2.83;;;34.20;61.10;;;;;;4984602;28;20022;-74
2023/08/19 16:34:52;;;;;;;8.43;3.63;;;33.90;61.40;;;;;;4996473;28;20038;-80
2023/08/19 16:37:19;;;;;;;8.30;3.50;;;33.50;62.20;;;;;;4985904;28;20038;-78
2023/08/19 16:39:45;;;;;;;6.03;3.58;;;33.10;62.90;;;;;;4991577;28;20022;-78
2023/08/19 16:42:17;;;;;;;5.75;3.45;;;32.80;63.90;;;;;;5005676;28;20090;-77
2023/08/19 16:44:44;;;;;;;5.60;3.28;;;32.20;65.00;;;;;;4986182;28;20321;-75
2023/08/19 16:47:09;;;;;;;6.68;3.20;;;31.80;66.10;;;;;;4995075;28;20032;-75
2023/08/19 16:49:35;;;;;;;6.35;3.58;;;31.40;67.10;;;;;;4987713;28;20054;-76
2023/08/19 16:52:01;;;;;;;8.13;3.53;;;31.30;67.80;;;;;;4999215;28;20029;-75
2023/08/19 16:54:26;;;;;;;7.95;3.63;;;31.20;68.20;;;;;;5005356;28;20227;-74
2023/08/19 16:56:52;;;;;;;6.47;3.65;;;31.10;69.50;;;;;;5005125;28;20038;-74
2023/08/19 16:59:18;;;;;;;7.50;4.05;;;31.00;69.30;;;;;;5005675;28;20208;-75
2023/08/19 17:01:44;;;;;;;7.32;4.03;;;31.00;69.30;;;;;;4986097;28;20046;-75
2023/08/19 17:04:10;;;;;;;9.63;4.10;;;31.20;69.80;;;;;;4985909;28;20022;-77
2023/08/19 17:06:35;;;;;;;11.98;3.70;;;31.10;69.50;;;;;;4996368;28;20034;-76
2023/08/19 17:09:02;;;;;;;8.55;4.43;;;31.10;69.80;;;;;;4986961;28;20053;-77
2023/08/19 17:11:31;;;;;;;8.88;4.13;;;31.10;70.00;;;;;;5003889;28;20034;-75
2023/08/19 17:13:56;;;;;;;8.80;4.07;;;31.00;70.20;;;;;;5000842;28;20034;-75
2023/08/19 17:16:22;;;;;;;10.27;4.40;;;31.20;70.20;;;;;;5004691;28;20251;-73
2023/08/19 17:18:48;;;;;;;8.23;4.00;;;31.10;70.40;;;;;;5003868;28;20038;-76
2023/08/19 17:21:14;;;;;;;6.50;4.10;;;30.90;70.90;;;;;;5004211;28;20081;-73
2023/08/19 17:23:40;;;;;;;9.35;3.95;;;30.80;71.70;;;;;;5004355;28;20073;-75
2023/08/19 17:26:06;;;;;;;8.80;4.43;;;30.70;72.10;;;;;;5004090;28;20065;-74
2023/08/19 17:28:31;;;;;;;7.10;3.95;;;30.60;72.40;;;;;;5004190;28;20022;-75
2023/08/19 17:31:05;;;;;;;9.27;4.13;;;30.50;72.60;;;;;;4970683;28;20037;-77
2023/08/19 17:33:31;;;;;;;7.32;4.55;;;30.40;73.20;;;;;;4996568;28;20030;-75
2023/08/19 17:36:01;;;;;;;15.40;5.45;;;30.30;73.60;;;;;;4984243;28;20046;-76
2023/08/19 17:38:27;;;;;;;6.53;4.13;;;30.20;74.00;;;;;;4985289;28;20026;-75
2023/08/19 17:40:59;;;;;;;9.98;4.53;;;30.10;74.30;;;;;;5000425;28;20066;-75
2023/08/19 17:43:26;;;;;;;8.07;4.15;;;29.90;74.80;;;;;;5004590;28;20060;-74
2023/08/19 17:45:54;;;;;;;9.27;4.50;;;29.90;75.20;;;;;;5003677;28;20346;-73
2023/08/19 17:48:24;;;;;;;6.60;4.40;;;29.80;75.50;;;;;;4968676;28;20019;-75
2023/08/19 17:50:50;;;;;;;9.20;5.15;;;29.70;75.90;;;;;;4998225;28;20057;-72
2023/08/19 17:53:17;;;;;;;8.93;4.60;;;29.60;76.00;;;;;;5002813;28;20256;-75
2023/08/19 17:55:43;;;;;;;7.35;4.47;;;29.60;76.60;;;;;;5003722;28;20030;-75
2023/08/19 17:58:09;;;;;;;6.57;4.78;;;29.40;76.70;;;;;;5003597;28;20096;-75
2023/08/19 18:00:35;;;;;;;7.20;4.68;;;29.40;77.00;;;;;;5003541;28;20034;-74
2023/08/19 18:03:01;;;;;;;8.98;5.28;;;29.40;77.10;;;;;;4986118;28;20031;-75
2023/08/19 18:05:27;;;;;;;7.93;4.85;;;29.40;77.80;;;;;;5002217;28;20089;-74
2023/08/19 18:07:53;;;;;;;7.90;5.63;;;29.30;77.90;;;;;;4984045;28;20320;-74
2023/08/19 18:10:19;;;;;;;11.38;6.00;;;29.20;78.30;;;;;;4984507;28;20029;-73
2023/08/19 18:12:45;;;;;;;7.53;5.80;;;29.10;78.60;;;;;;4984287;28;20038;-75
2023/08/19 18:15:11;;;;;;;10.70;5.40;;;29.00;79.00;;;;;;4985970;28;20023;-75
2023/08/19 18:17:37;;;;;;;8.45;5.43;;;29.00;79.40;;;;;;4967263;28;20049;-74
2023/08/19 18:20:04;;;;;;;6.93;4.72;;;28.90;80.00;;;;;;4983944;28;20327;-76
2023/08/19 18:22:30;;;;;;;6.78;5.07;;;28.80;80.40;;;;;;4984421;28;20073;-76
2023/08/19 18:24:56;;;;;;;6.75;4.47;;;28.70;80.80;;;;;;4966328;28;20058;-74
2023/08/19 18:27:22;;;;;;;6.95;4.65;;;28.70;81.20;;;;;;4984139;28;20185;-75
2023/08/19 18:29:47;;;;;;;8.02;4.57;;;28.60;81.50;;;;;;5000455;28;20089;-76
2023/08/19 18:32:13;;;;;;;7.75;4.55;;;28.50;81.80;;;;;;5002891;28;20094;-75
2023/08/19 18:34:39;;;;;;;8.05;5.20;;;28.50;82.00;;;;;;5000472;28;20371;-74
2023/08/19 18:37:05;;;;;;;14.82;5.45;;;28.40;82.40;;;;;;5000797;28;20026;-76
2023/08/19 18:39:31;;;;;;;8.95;5.30;;;28.40;82.50;;;;;;5003425;28;20061;-76
2023/08/19 18:41:57;;;;;;;8.80;5.30;;;28.40;82.40;;;;;;5003149;28;20408;-74
2023/08/19 18:44:23;;;;;;;9.52;5.15;;;28.40;82.00;;;;;;5003141;28;20022;-76
2023/08/19 18:46:48;;;;;;;8.30;5.05;;;28.40;82.70;;;;;;4979994;28;20296;-75
2023/08/19 18:49:14;;;;;;;8.95;5.20;;;28.30;83.00;;;;;;4966166;28;20301;-76
2023/08/19 18:51:40;;;;;;;8.18;4.93;;;28.30;83.30;;;;;;4983302;28;20054;-76
2023/08/19 18:54:06;;;;;;;8.32;5.53;;;28.20;83.40;;;;;;5002094;28;20029;-76
2023/08/19 18:56:31;;;;;;;8.35;5.13;;;28.20;83.70;;;;;;5001884;28;20061;-76
2023/08/19 18:58:58;;;;;;;8.13;5.60;;;28.10;83.80;;;;;;5002812;28;20248;-76
2023/08/19 19:01:24;;;;;;;9.25;5.80;;;28.10;83.70;;;;;;4971257;28;20101;-77
2023/08/19 19:03:58;;;;;;;10.70;5.68;;;28.10;83.60;;;;;;4991237;28;20034;-79
2023/08/19 19:06:24;;;;;;;8.15;5.22;;;28.10;84.20;;;;;;4997933;28;20109;-75
2023/08/19 19:08:50;;;;;;;6.97;5.55;;;28.10;84.50;;;;;;4970853;28;20034;-76
2023/08/19 19:11:17;;;;;;;9.55;6.18;;;28.00;84.60;;;;;;4987474;28;20042;-76
2023/08/19 19:13:42;;;;;;;8.20;5.28;;;28.00;85.00;;;;;;4970564;28;20034;-75
2023/08/19 19:16:08;;;;;;;7.57;5.50;;;28.00;85.10;;;;;;4987058;28;20072;-75
2023/08/19 19:18:34;;;;;;;6.80;5.47;;;27.90;85.40;;;;;;5004834;28;20018;-75
2023/08/19 19:21:00;;;;;;;7.32;4.68;;;27.80;85.40;;;;;;5006419;28;20057;-78
2023/08/19 19:23:31;;;;;;;7.68;5.13;;;27.90;85.10;;;;;;4989013;28;20046;-79
2023/08/19 19:26:04;;;;;;;8.40;5.38;;;27.90;85.40;;;;;;4989216;28;20026;-79
2023/08/19 19:28:30;;;;;;;8.75;5.53;;;27.80;85.10;;;;;;5000801;28;20077;-73
2023/08/19 19:30:56;;;;;;;9.00;5.18;;;27.80;84.10;;;;;;4986913;28;20030;-73
2023/08/19 19:33:25;;;;;;;11.55;5.60;;;27.80;85.80;;;;;;4987523;28;20054;-80
2023/08/19 19:35:51;;;;;;;9.45;5.75;;;27.80;85.60;;;;;;4970038;28;20023;-79
2023/08/19 19:38:17;;;;;;;6.78;5.03;;;27.70;85.90;;;;;;4995695;28;20034;-78
2023/08/19 19:40:42;;;;;;;8.65;5.40;;;27.70;85.70;;;;;;4989065;28;20065;-79
2023/08/19 19:43:08;;;;;;;9.27;5.50;;;27.70;85.70;;;;;;5006328;28;20231;-78
2023/08/19 19:45:34;;;;;;;9.65;5.32;;;27.70;86.30;;;;;;5006658;28;20049;-75
2023/08/19 19:48:00;;;;;;;6.82;5.07;;;27.60;86.40;;;;;;4990085;28;20062;-75
2023/08/19 19:50:26;;;;;;;7.35;5.43;;;27.60;87.00;;;;;;4969677;28;20090;-78
2023/08/19 19:52:51;;;;;;;7.45;5.22;;;27.50;87.00;;;;;;4969685;28;20035;-76
2023/08/19 19:55:17;;;;;;;8.70;5.55;;;27.50;87.20;;;;;;4969270;28;20045;-75
2023/08/19 19:57:44;;;;;;;7.43;5.47;;;27.40;87.30;;;;;;4986415;28;20304;-75
2023/08/19 20:00:11;;;;;;;7.80;5.45;;;27.30;87.50;;;;;;5004312;28;20257;-76
2023/08/19 20:02:37;;;;;;;7.57;5.88;;;27.30;87.70;;;;;;5006457;28;20040;-76
2023/08/19 20:05:03;;;;;;;9.10;5.07;;;27.20;88.10;;;;;;5005564;28;20042;-77
2023/08/19 20:07:29;;;;;;;9.77;5.20;;;27.20;88.00;;;;;;4987857;28;20086;-78
2023/08/19 20:10:01;;;;;;;8.43;5.20;;;27.10;88.20;;;;;;4968986;28;20034;-79
2023/08/19 20:12:27;;;;;;;15.35;6.45;;;27.10;88.40;;;;;;4986473;28;20360;-76
2023/08/19 20:14:53;;;;;;;10.05;6.05;;;27.10;88.50;;;;;;4986734;28;20031;-76
2023/08/19 20:17:19;;;;;;;8.02;6.15;;;27.00;88.70;;;;;;4986333;28;20030;-76
2023/08/19 20:19:44;;;;;;;8.55;6.05;;;26.90;88.50;;;;;;4995512;28;20224;-77
2023/08/19 20:22:10;;;;;;;8.90;5.25;;;26.90;89.00;;;;;;5005403;28;20268;-77
2023/08/19 20:24:36;;;;;;;7.00;5.22;;;26.80;89.00;;;;;;5005920;28;20030;-76
2023/08/19 20:27:02;;;;;;;9.75;5.65;;;26.80;89.10;;;;;;5005241;28;20034;-78